Traver, CA (93673)

6:28 PM PDT on September 17, 2014 (GMT -0700)
MesoWest TRAVER CA US UPR | Change Station
CLOSE
Current Station
Personal Weather Station
Location: Traver, CA
Elevation: 274 ft
Nearby Weather Stations

Elev 274 ft 36.40 °N, 119.46 °W | Updated 1 hour ago

Partly Cloudy
Partly Cloudy
103 °F
Feels Like 96 °F
N
Wind Variable Wind from North
Gusts 0.0 mph

Today
High -- | Low -- °F
--% Chance of Precip.
Yesterday
High -- | Low -- °F
Precip. -- in
6:41 AM 7:02 PM
Waning Crescent, 31% visible
Pressure 29.68 in
Visibility 10.0 miles
Clouds Clear
Heat Index 96 °F
Dew Point Not available.
Humidity Not available.
Rainfall -999.00 in
Snow Depth 0 in , 2 in , 0 in
UV 0 out of 12
Pollen 6.90 out of 12
Ozone Good
PM2.5 Good
Flu Activity Not available.
METAR KVIS 180115Z AUTO 12003KT 10SM CLR 36/13 A2968 RMK AO1

More Conditions Fewer Conditions

Pressure 29.68 in
Visibility 10.0 miles
Clouds Clear
Heat Index 96 °F
Dew Point Not available.
Humidity Not available.
Rainfall -999.00 in
Snow Depth 0 in , 2 in , 0 in
UV 0 out of 12
Pollen 6.90 out of 12
Ozone Good
PM2.5 Good
Flu Activity Not available.
METAR KVIS 180115Z AUTO 12003KT 10SM CLR 36/13 A2968 RMK AO1

More Conditions Fewer Conditions

10-Day Weather Forecast

Almanac

Astronomy

Sep. 17, 2014 Rise Set
Actual Time 6:41 AM PDT 7:02 PM PDT
Civil Twilight 6:16 AM PDT 7:27 PM PDT
Nautical Twilight 5:45 AM PDT 7:58 PM PDT
Astronomical Twilight 5:15 AM PDT 8:28 PM PDT
Moon 12:53 AM PDT (9/17) 3:08 PM PDT (9/17)
Length of Visible Light 13h 11m
Length of Day
12h 20m
Tomorrow will be 2m 17s shorter.
Waning Crescent, 31% of the Moon is Illuminated
Today
Waning Crescent
Sep 24
New
Oct 1
First Quarter
Oct 8
Full
Oct 15
Last Quarter

Today's Extremes

State Highs State Lows

Community

WunderPhotos

Upload Photos

1,754,245 photos uploaded!

Nearby

Air Quality

  Air Quality AQ Index Pollutant
Yesterday Good
OZONE
Yesterday Good
PM2.5
Current Good
OZONE
Current Good
PM2.5
Wednesday Good
OZONE
Thursday Good
PM2.5
Friday Good
PM2.5
Saturday Good
PM2.5
Sunday Good
PM2.5
Monday Good
PM2.5

Snow Depth

Station Depth Elevation
Leavitt Meadows 0 in 7200 ft
Adin Mountain 2 in 6200 ft
Tahoe City Cross 0 in 6750 ft
Spratt Creek 0 in 6200 ft
CSS Lab 2 in 6900 ft

Earthquake Activity

City Distance Mag. Time & Date
No recent earthquake activity has been reported nearby.
Minimum magnitude displayed is 2.5.

Coastal Water Temperatures

Place Temperature
No Stations Reporting

Nearby Weather Stations